Time;durP1;ratioP1;P1;durP2;ratioP2;P2;SDS_P1;SDS_P2;PMS_P1;PMS_P2;Temp;Humidity;BMP_temperature;BMP_pressure;BME280_temperature;BME280_humidity;BME280_pressure;Samples;Min_cycle;Max_cycle;Signal;HPM_P1;HPM_P2
2021/10/17 00:00:03;;;;;;;29.25;20.48;;;;;;;8.02;75.70;100480.19;1790001;79;21032;-69
2021/10/17 00:02:32;;;;;;;29.27;20.57;;;;;;;7.98;75.68;100480.84;1788602;80;21471;-70
2021/10/17 00:04:58;;;;;;;31.60;21.73;;;;;;;7.97;75.66;100480.95;1788709;80;20984;-69
2021/10/17 00:07:25;;;;;;;26.62;20.12;;;;;;;7.94;75.65;100471.96;1790327;80;20941;-70
2021/10/17 00:09:51;;;;;;;27.60;19.90;;;;;;;7.92;75.68;100475.17;1790298;80;22284;-70
2021/10/17 00:12:18;;;;;;;27.42;19.92;;;;;;;7.89;75.71;100471.41;1789917;80;20996;-69
2021/10/17 00:14:45;;;;;;;26.02;19.67;;;;;;;7.86;75.70;100476.41;1790204;79;20946;-69
2021/10/17 00:17:12;;;;;;;25.30;19.87;;;;;;;7.83;75.72;100474.00;1789938;80;20954;-69
2021/10/17 00:19:39;;;;;;;26.68;20.48;;;;;;;7.81;75.68;100469.28;1755883;81;21039;-69
2021/10/17 00:22:05;;;;;;;28.67;20.48;;;;;;;7.77;75.74;100468.30;1759772;80;22187;-69
2021/10/17 00:24:33;;;;;;;24.77;19.42;;;;;;;7.72;75.78;100467.27;1758716;81;20949;-69
2021/10/17 00:26:59;;;;;;;24.80;19.45;;;;;;;7.69;75.83;100471.42;1758730;81;20984;-69
2021/10/17 00:29:26;;;;;;;29.80;20.20;;;;;;;7.67;75.85;100473.31;1773301;80;20972;-70
2021/10/17 00:31:53;;;;;;;27.75;20.45;;;;;;;7.66;75.86;100472.95;1765209;81;21367;-69
2021/10/17 00:34:19;;;;;;;24.98;19.20;;;;;;;7.62;75.93;100479.33;1765454;79;21827;-69
2021/10/17 00:36:47;;;;;;;29.27;19.55;;;;;;;7.60;75.94;100482.53;1765255;81;20972;-70
2021/10/17 00:39:13;;;;;;;28.92;20.10;;;;;;;7.56;76.00;100480.59;1741575;81;21351;-70
2021/10/17 00:41:40;;;;;;;29.60;20.27;;;;;;;7.54;76.00;100482.95;1734854;82;20995;-70
2021/10/17 00:44:06;;;;;;;25.88;19.25;;;;;;;7.51;76.05;100483.13;1735137;82;20980;-70
2021/10/17 00:46:33;;;;;;;29.82;20.97;;;;;;;7.47;76.10;100486.44;1734731;82;22209;-70
2021/10/17 00:49:00;;;;;;;26.02;19.40;;;;;;;7.43;76.14;100483.63;1738195;81;21466;-70
2021/10/17 00:51:27;;;;;;;24.70;19.32;;;;;;;7.41;76.17;100483.72;1748318;81;20920;-70
2021/10/17 00:53:55;;;;;;;26.35;20.02;;;;;;;7.39;76.21;100480.83;1765187;81;20936;-70
2021/10/17 00:56:22;;;;;;;26.70;20.20;;;;;;;7.37;76.17;100479.62;1739759;81;21545;-70
2021/10/17 00:58:48;;;;;;;29.10;20.70;;;;;;;7.35;76.24;100483.30;1734895;82;21823;-70
2021/10/17 01:01:15;;;;;;;28.85;20.37;;;;;;;7.31;76.31;100486.57;1734735;82;20984;-70
2021/10/17 01:03:41;;;;;;;25.90;19.92;;;;;;;7.28;76.39;100487.25;1735196;80;21055;-70
2021/10/17 01:06:12;;;;;;;27.62;19.45;;;;;;;7.22;76.49;100485.00;1734835;82;21070;-70
2021/10/17 01:08:36;;;;;;;27.02;20.12;;;;;;;7.17;76.55;100487.47;1734713;80;20955;-69
2021/10/17 01:11:03;;;;;;;30.10;20.37;;;;;;;7.16;76.59;100490.20;1734824;82;21793;-69
2021/10/17 01:13:30;;;;;;;27.15;20.80;;;;;;;7.12;76.64;100493.47;1736057;81;20984;-70
2021/10/17 01:15:57;;;;;;;30.62;20.65;;;;;;;7.11;76.68;100497.51;1704137;82;21154;-70
2021/10/17 01:18:26;;;;;;;27.87;19.90;;;;;;;7.08;76.73;100497.71;1740085;81;20964;-70
2021/10/17 01:20:56;;;;;;;29.12;21.00;;;;;;;7.06;76.75;100496.97;1765240;81;20927;-69
2021/10/17 01:23:22;;;;;;;28.27;20.72;;;;;;;7.05;76.80;100496.59;1765299;81;21689;-70
2021/10/17 01:25:49;;;;;;;28.75;21.02;;;;;;;7.02;76.85;100492.83;1765413;81;21443;-70
2021/10/17 01:28:16;;;;;;;31.37;20.32;;;;;;;6.98;76.90;100499.23;1765175;80;20986;-70
2021/10/17 01:30:42;;;;;;;28.83;20.65;;;;;;;6.97;76.88;100495.76;1764409;80;20964;-70
2021/10/17 01:33:10;;;;;;;26.70;19.77;;;;;;;6.97;76.88;100496.23;1765413;79;21051;-70
2021/10/17 01:35:37;;;;;;;27.20;20.60;;;;;;;6.95;76.82;100498.08;1765426;81;22715;-69
2021/10/17 01:38:05;;;;;;;27.70;20.77;;;;;;;6.94;76.84;100500.34;1733338;81;20939;-69
2021/10/17 01:40:33;;;;;;;27.85;19.40;;;;;;;6.90;76.83;100501.02;1765302;79;20983;-71
2021/10/17 01:42:59;;;;;;;28.05;20.45;;;;;;;6.91;76.81;100507.10;1765476;79;21663;-70
2021/10/17 01:45:27;;;;;;;29.65;20.62;;;;;;;6.88;76.78;100508.98;1764790;79;20968;-70
2021/10/17 01:47:57;;;;;;;28.65;20.97;;;;;;;6.87;76.80;100506.46;1765373;79;21403;-69
2021/10/17 01:50:24;;;;;;;27.07;20.70;;;;;;;6.82;76.81;100505.41;1765680;79;20936;-69
2021/10/17 01:52:51;;;;;;;29.95;18.75;;;;;;;6.82;76.85;100512.45;1765404;79;21517;-69
2021/10/17 01:55:17;;;;;;;27.45;19.27;;;;;;;6.79;76.84;100512.65;1759122;79;20999;-70
2021/10/17 01:57:45;;;;;;;27.40;19.07;;;;;;;6.77;76.83;100509.28;1750596;81;21432;-70
2021/10/17 02:00:14;;;;;;;25.90;19.70;;;;;;;6.76;76.84;100511.53;1735272;80;21805;-70
2021/10/17 02:02:42;;;;;;;30.72;20.32;;;;;;;6.73;76.85;100512.55;1739871;81;21035;-70
2021/10/17 02:05:10;;;;;;;29.98;20.70;;;;;;;6.71;76.90;100508.33;1765094;80;20983;-70
2021/10/17 02:07:36;;;;;;;28.47;20.08;;;;;;;6.67;76.96;100509.00;1765367;81;20925;-70
2021/10/17 02:10:05;;;;;;;27.15;20.70;;;;;;;6.66;77.00;100512.56;1765306;81;21162;-70
2021/10/17 02:12:32;;;;;;;27.22;20.37;;;;;;;6.64;76.98;100508.33;1765326;81;21820;-70
2021/10/17 02:15:04;;;;;;;25.95;19.98;;;;;;;6.64;76.96;100512.26;1765223;81;21451;-69
2021/10/17 02:17:31;;;;;;;28.20;19.85;;;;;;;6.62;76.98;100512.36;1765474;81;20991;-70
2021/10/17 02:19:59;;;;;;;29.48;19.48;;;;;;;6.62;77.00;100520.23;1756602;80;20992;-69
2021/10/17 02:22:26;;;;;;;28.65;20.10;;;;;;;6.60;77.00;100511.61;1735158;82;20935;-69
2021/10/17 02:24:52;;;;;;;26.45;19.23;;;;;;;6.57;77.12;100517.90;1735155;82;21819;-69
2021/10/17 02:27:19;;;;;;;29.25;20.88;;;;;;;6.56;77.19;100514.91;1734915;82;20988;-69
2021/10/17 02:29:47;;;;;;;26.82;19.92;;;;;;;6.54;77.26;100511.50;1752836;79;21158;-70
2021/10/17 02:32:34;;;;;;;26.55;19.90;;;;;;;6.54;77.32;100519.38;1759639;81;21060;-69
2021/10/17 02:35:11;;;;;;;25.62;19.20;;;;;;;6.52;77.26;100513.85;1760143;80;21493;-70
2021/10/17 02:37:38;;;;;;;25.57;18.87;;;;;;;6.48;77.25;100517.61;1758760;80;22618;-69
2021/10/17 02:40:06;;;;;;;27.40;19.30;;;;;;;6.45;77.20;100512.52;1759595;81;20928;-69
2021/10/17 02:42:33;;;;;;;28.30;19.70;;;;;;;6.41;77.16;100511.03;1732076;81;20983;-69
2021/10/17 02:44:59;;;;;;;25.65;18.73;;;;;;;6.37;76.98;100512.13;1759604;81;20965;-69
2021/10/17 02:47:27;;;;;;;24.67;18.02;;;;;;;6.29;76.84;100515.23;1759558;81;20960;-70
2021/10/17 02:49:54;;;;;;;28.42;19.85;;;;;;;6.21;76.76;100513.06;1759909;81;21845;-69
2021/10/17 02:52:22;;;;;;;30.17;19.62;;;;;;;6.16;76.72;100513.79;1759505;81;20920;-70
2021/10/17 02:54:49;;;;;;;28.80;19.48;;;;;;;6.13;76.79;100513.13;1758833;81;20972;-70
2021/10/17 02:57:15;;;;;;;28.07;19.80;;;;;;;6.13;76.83;100513.98;1759526;81;20944;-70
2021/10/17 02:59:42;;;;;;;26.52;18.92;;;;;;;6.15;77.00;100516.03;1759586;81;20936;-70
2021/10/17 03:02:09;;;;;;;28.75;19.73;;;;;;;6.15;77.00;100512.10;1753371;81;22830;-70
2021/10/17 03:04:36;;;;;;;28.30;19.57;;;;;;;6.14;76.96;100516.13;1734135;81;20992;-70
2021/10/17 03:07:03;;;;;;;26.93;18.90;;;;;;;6.13;76.91;100519.69;1729597;83;20956;-70
2021/10/17 03:09:31;;;;;;;27.17;19.07;;;;;;;6.11;76.86;100514.55;1729762;83;21278;-70
2021/10/17 03:12:00;;;;;;;28.05;19.55;;;;;;;6.11;76.84;100515.01;1750478;81;21426;-69
2021/10/17 03:14:26;;;;;;;27.58;18.57;;;;;;;6.09;76.83;100515.58;1759814;81;22165;-70
2021/10/17 03:16:55;;;;;;;29.20;18.23;;;;;;;6.08;76.78;100518.66;1759636;81;21447;-70
2021/10/17 03:19:22;;;;;;;22.80;17.42;;;;;;;6.05;76.87;100520.13;1759526;81;20964;-70
2021/10/17 03:21:49;;;;;;;26.48;18.07;;;;;;;6.02;76.92;100516.39;1759639;81;21008;-70
2021/10/17 03:24:16;;;;;;;24.40;18.90;;;;;;;6.02;77.03;100526.88;1759618;81;20987;-70
2021/10/17 03:26:43;;;;;;;26.48;18.27;;;;;;;5.99;77.15;100520.51;1759585;81;22270;-70
2021/10/17 03:29:09;;;;;;;26.30;18.77;;;;;;;5.97;77.23;100523.19;1736941;81;21467;-71
2021/10/17 03:31:38;;;;;;;25.37;17.90;;;;;;;5.97;77.25;100521.88;1729384;81;20951;-69
2021/10/17 03:34:05;;;;;;;27.48;19.48;;;;;;;5.95;77.29;100521.60;1729473;83;21665;-70
2021/10/17 03:36:32;;;;;;;26.15;18.73;;;;;;;5.91;77.37;100524.03;1729415;83;20976;-70
2021/10/17 03:38:58;;;;;;;23.45;18.05;;;;;;;5.89;77.47;100520.16;1729353;82;21821;-70
2021/10/17 03:41:26;;;;;;;28.30;19.62;;;;;;;5.87;77.59;100522.00;1729286;83;20956;-71
2021/10/17 03:43:53;;;;;;;27.00;19.17;;;;;;;5.87;77.61;100521.16;1729396;83;21031;-70
2021/10/17 03:46:21;;;;;;;24.07;18.48;;;;;;;5.86;77.69;100522.09;1730399;81;20984;-70
2021/10/17 03:48:47;;;;;;;25.48;18.42;;;;;;;5.83;77.75;100524.44;1729422;82;20936;-69
2021/10/17 03:51:16;;;;;;;27.52;19.77;;;;;;;5.84;77.87;100526.13;1729199;83;22253;-69
2021/10/17 03:53:42;;;;;;;25.57;18.25;;;;;;;5.82;78.03;100534.55;1729537;83;20944;-70
2021/10/17 03:56:10;;;;;;;26.05;18.67;;;;;;;5.82;78.13;100528.00;1729340;83;20979;-70
2021/10/17 03:58:37;;;;;;;28.87;19.75;;;;;;;5.82;78.18;100536.33;1758096;81;21490;-71
2021/10/17 04:01:03;;;;;;;26.65;19.07;;;;;;;5.81;78.30;100532.86;1759654;81;20852;-70
2021/10/17 04:03:31;;;;;;;28.70;20.95;;;;;;;5.81;78.35;100535.48;1732149;81;21991;-69
2021/10/17 04:05:58;;;;;;;36.60;26.45;;;;;;;5.81;78.37;100535.95;1729351;82;21070;-70
2021/10/17 04:08:25;;;;;;;33.40;23.60;;;;;;;5.80;78.42;100542.97;1735562;81;20944;-71
2021/10/17 04:10:53;;;;;;;31.70;22.27;;;;;;;5.80;78.51;100542.13;1703009;83;21306;-70
2021/10/17 04:13:20;;;;;;;40.43;25.88;;;;;;;5.77;78.55;100538.34;1729467;83;20995;-70
2021/10/17 04:15:48;;;;;;;40.88;30.12;;;;;;;5.76;78.71;100545.37;1729375;82;21111;-69
2021/10/17 04:18:14;;;;;;;41.98;28.07;;;;;;;5.77;78.77;100544.90;1729444;81;21416;-71
2021/10/17 04:20:41;;;;;;;104.40;62.85;;;;;;;5.76;78.81;100542.75;1730219;81;20995;-70
2021/10/17 04:23:08;;;;;;;59.18;36.65;;;;;;;5.78;78.88;100543.97;1729304;81;21116;-69
2021/10/17 04:25:35;;;;;;;39.40;27.00;;;;;;;5.80;78.94;100539.04;1729395;82;21142;-70
2021/10/17 04:28:03;;;;;;;43.70;33.25;;;;;;;5.79;78.91;100542.59;1729321;83;22215;-70
2021/10/17 04:30:31;;;;;;;53.70;39.13;;;;;;;5.78;78.96;100538.72;1741729;80;21019;-70
2021/10/17 04:32:58;;;;;;;36.15;25.37;;;;;;;5.78;79.03;100537.41;1765459;81;21498;-70
2021/10/17 04:35:24;;;;;;;35.45;23.45;;;;;;;5.77;79.07;100536.57;1764322;81;21578;-70
2021/10/17 04:37:51;;;;;;;31.70;21.65;;;;;;;5.78;79.08;100541.34;1734842;82;21462;-71
2021/10/17 04:40:17;;;;;;;30.55;21.50;;;;;;;5.77;79.13;100545.74;1735214;82;22773;-69
2021/10/17 04:42:44;;;;;;;28.25;21.05;;;;;;;5.77;79.19;100547.52;1734794;82;20936;-69
2021/10/17 04:45:11;;;;;;;30.23;20.30;;;;;;;5.74;79.25;100540.22;1735122;82;20975;-70
2021/10/17 04:47:38;;;;;;;31.35;21.00;;;;;;;5.75;79.29;100548.45;1734782;80;21529;-70
2021/10/17 04:50:06;;;;;;;28.95;20.32;;;;;;;5.73;79.29;100546.86;1735157;82;21370;-69
2021/10/17 04:52:33;;;;;;;27.95;21.02;;;;;;;5.73;79.29;100552.95;1735775;81;21839;-69
2021/10/17 04:54:59;;;;;;;34.55;21.85;;;;;;;5.74;79.33;100546.77;1735096;82;20983;-70
2021/10/17 04:57:26;;;;;;;30.17;21.30;;;;;;;5.74;79.35;100553.32;1748500;80;21320;-70
2021/10/17 04:59:53;;;;;;;33.35;22.90;;;;;;;5.76;79.37;100554.55;1765475;81;21015;-70
2021/10/17 05:02:19;;;;;;;33.80;22.25;;;;;;;5.78;79.38;100567.09;1765338;79;21430;-69
2021/10/17 05:04:47;;;;;;;34.38;22.87;;;;;;;5.78;79.42;100562.31;1765530;81;21788;-70
2021/10/17 05:07:14;;;;;;;34.33;23.05;;;;;;;5.82;79.52;100565.16;1765308;81;21384;-70
2021/10/17 05:09:41;;;;;;;35.58;22.95;;;;;;;5.85;79.59;100566.28;1760899;81;21488;-70
2021/10/17 05:12:09;;;;;;;33.30;22.77;;;;;;;5.88;79.65;100573.97;1734949;82;21081;-70
2021/10/17 05:14:36;;;;;;;34.10;23.25;;;;;;;5.92;79.73;100579.00;1741686;81;20991;-71
2021/10/17 05:17:04;;;;;;;35.40;23.07;;;;;;;5.95;79.81;100574.03;1765442;81;22218;-69
2021/10/17 05:19:32;;;;;;;34.15;23.98;;;;;;;5.98;79.86;100578.66;1753847;81;20990;-71
2021/10/17 05:22:00;;;;;;;35.55;23.95;;;;;;;6.02;79.99;100583.25;1735028;82;21415;-70
2021/10/17 05:24:27;;;;;;;37.28;23.70;;;;;;;6.06;80.07;100585.22;1734961;82;21718;-69
2021/10/17 05:26:54;;;;;;;31.60;22.48;;;;;;;6.06;80.15;100587.38;1742768;81;21407;-69
2021/10/17 05:29:21;;;;;;;30.92;22.65;;;;;;;6.10;80.21;100590.22;1765318;81;22197;-69
2021/10/17 05:31:48;;;;;;;34.83;24.02;;;;;;;6.13;80.27;100595.27;1765276;80;21075;-70
2021/10/17 05:34:15;;;;;;;34.98;22.40;;;;;;;6.17;80.30;100590.69;1765413;81;21036;-69
2021/10/17 05:36:43;;;;;;;35.90;23.25;;;;;;;6.18;80.30;100590.63;1733942;81;21609;-70
2021/10/17 05:39:11;;;;;;;29.98;21.35;;;;;;;6.21;80.32;100594.84;1765392;81;20979;-70
2021/10/17 05:41:39;;;;;;;30.30;20.88;;;;;;;6.23;80.29;100594.28;1765361;81;21852;-69
2021/10/17 05:44:06;;;;;;;30.82;22.32;;;;;;;6.24;80.25;100592.03;1755771;81;20992;-70
2021/10/17 05:46:33;;;;;;;29.02;21.57;;;;;;;6.24;80.24;100596.81;1734909;82;20999;-70
2021/10/17 05:48:59;;;;;;;30.77;22.07;;;;;;;6.26;80.23;100598.03;1734989;82;21075;-69
2021/10/17 05:51:26;;;;;;;30.25;21.90;;;;;;;6.27;80.20;100597.09;1734983;80;20948;-70
2021/10/17 05:53:53;;;;;;;28.50;19.62;;;;;;;6.29;80.20;100597.87;1734999;82;21833;-69
2021/10/17 05:56:19;;;;;;;29.37;21.37;;;;;;;6.29;80.17;100595.25;1734925;82;20987;-70
2021/10/17 05:58:46;;;;;;;29.92;21.15;;;;;;;6.30;80.17;100598.24;1742120;81;21447;-69
2021/10/17 06:01:12;;;;;;;31.17;21.42;;;;;;;6.33;80.15;100603.30;1754386;81;21610;-69
2021/10/17 06:03:41;;;;;;;29.98;22.00;;;;;;;6.35;80.14;100605.36;1733919;82;20980;-70
2021/10/17 06:06:28;;;;;;;27.40;20.37;;;;;;;6.37;80.17;100597.40;1693304;84;21785;-69
2021/10/17 06:08:58;;;;;;;29.42;20.72;;;;;;;6.40;80.21;100603.33;1692565;84;20877;-70
2021/10/17 06:11:25;;;;;;;29.27;20.60;;;;;;;6.46;80.32;100605.58;1708308;82;20967;-70
2021/10/17 06:13:51;;;;;;;30.08;21.37;;;;;;;6.53;80.41;100611.31;1734994;82;21066;-70
2021/10/17 06:16:18;;;;;;;29.63;20.08;;;;;;;6.58;80.49;100600.94;1735267;82;21479;-71
2021/10/17 06:18:44;;;;;;;31.15;21.37;;;;;;;6.65;80.52;100601.41;1737525;81;21836;-70
2021/10/17 06:21:12;;;;;;;34.45;22.37;;;;;;;6.73;80.54;100605.73;1752297;81;20995;-70
2021/10/17 06:23:39;;;;;;;26.70;20.23;;;;;;;6.80;80.54;100601.81;1734978;82;20983;-69
2021/10/17 06:26:06;;;;;;;29.18;21.23;;;;;;;6.88;80.55;100604.83;1735099;82;21000;-69
2021/10/17 06:28:35;;;;;;;29.42;21.40;;;;;;;6.95;80.49;100604.44;1735116;81;21082;-70
2021/10/17 06:31:02;;;;;;;30.97;21.68;;;;;;;7.03;80.41;100603.03;1751713;80;21840;-70
2021/10/17 06:33:29;;;;;;;29.60;21.20;;;;;;;7.13;80.43;100597.59;1759643;81;21434;-70
2021/10/17 06:35:56;;;;;;;25.77;19.15;;;;;;;7.22;80.43;100592.24;1739759;81;20956;-70
2021/10/17 06:38:23;;;;;;;28.02;19.85;;;;;;;7.32;80.33;100593.83;1729433;83;20943;-70
2021/10/17 06:40:50;;;;;;;27.27;20.02;;;;;;;7.42;80.27;100590.52;1729670;81;21067;-69
2021/10/17 06:43:16;;;;;;;28.23;20.35;;;;;;;7.54;80.16;100594.66;1729463;82;22209;-70
2021/10/17 06:45:50;;;;;;;28.62;20.88;;;;;;;7.64;80.04;100586.56;1728626;83;21486;-70
2021/10/17 06:48:18;;;;;;;25.62;19.05;;;;;;;7.77;79.87;100595.81;1729429;83;20948;-70
2021/10/17 06:50:44;;;;;;;26.82;18.55;;;;;;;7.86;79.71;100604.43;1729547;83;20974;-70
2021/10/17 06:53:11;;;;;;;28.17;19.17;;;;;;;7.95;79.51;100598.58;1730719;81;21016;-71
2021/10/17 06:55:37;;;;;;;25.68;17.48;;;;;;;8.05;79.37;100594.41;1729678;82;22203;-71
2021/10/17 06:58:04;;;;;;;46.05;37.20;;;;;;;8.17;79.26;100593.59;1729798;83;21364;-71
2021/10/17 07:00:32;;;;;;;50.12;40.23;;;;;;;8.26;78.83;100586.88;1733043;81;21004;-71
2021/10/17 07:02:59;;;;;;;42.60;34.73;;;;;;;8.36;78.65;100589.77;1759843;81;21031;-70
2021/10/17 07:05:26;;;;;;;42.17;34.67;;;;;;;8.46;78.42;100583.78;1759623;81;20933;-69
2021/10/17 07:07:52;;;;;;;32.98;26.55;;;;;;;8.54;78.04;100586.75;1759585;81;21784;-71
2021/10/17 07:10:20;;;;;;;34.63;25.85;;;;;;;8.58;77.43;100589.53;1734172;81;20948;-70
2021/10/17 07:13:06;;;;;;;24.25;19.98;;;;;;;8.62;77.16;100595.45;1729517;82;20944;-69
2021/10/17 07:15:37;;;;;;;27.62;18.95;;;;;;;8.70;77.03;100594.94;1727077;83;20959;-70
2021/10/17 07:18:04;;;;;;;22.95;16.15;;;;;;;8.79;76.78;100596.95;1729414;82;20993;-71
2021/10/17 07:20:31;;;;;;;23.73;16.42;;;;;;;8.88;76.66;100597.64;1753721;81;22266;-70
2021/10/17 07:22:58;;;;;;;20.43;14.73;;;;;;;8.99;76.40;100597.73;1732096;81;21024;-70
2021/10/17 07:25:26;;;;;;;21.82;15.48;;;;;;;9.11;76.31;100594.72;1751442;81;20996;-71
2021/10/17 07:27:53;;;;;;;22.95;14.65;;;;;;;9.24;75.96;100592.05;1729322;82;20961;-70
2021/10/17 07:30:20;;;;;;;22.15;15.23;;;;;;;9.33;75.75;100598.84;1729373;82;21059;-69
2021/10/17 07:32:47;;;;;;;22.30;15.58;;;;;;;9.39;75.35;100597.58;1756062;80;22187;-70
2021/10/17 07:35:14;;;;;;;20.45;14.90;;;;;;;9.43;74.86;100600.34;1759615;81;20990;-71
2021/10/17 07:37:40;;;;;;;20.30;14.28;;;;;;;9.46;74.55;100596.20;1759643;80;20988;-70
2021/10/17 07:40:09;;;;;;;21.37;15.03;;;;;;;9.50;74.40;100598.97;1759065;81;21000;-70
2021/10/17 07:42:38;;;;;;;17.70;14.18;;;;;;;9.53;73.96;100598.73;1758723;81;20988;-70
2021/10/17 07:45:06;;;;;;;21.75;15.08;;;;;;;9.56;73.87;100592.42;1759676;81;21825;-70
2021/10/17 07:47:35;;;;;;;20.95;14.75;;;;;;;9.65;73.79;100594.38;1758814;81;21055;-71
2021/10/17 07:50:05;;;;;;;18.70;13.60;;;;;;;9.77;73.66;100597.95;1759392;81;20988;-70
2021/10/17 07:52:34;;;;;;;17.82;12.68;;;;;;;9.90;73.58;100596.09;1759546;81;20992;-69
2021/10/17 07:55:03;;;;;;;18.70;12.33;;;;;;;10.06;73.44;100593.18;1732382;81;21004;-70
2021/10/17 07:57:51;;;;;;;17.67;12.70;;;;;;;10.19;72.82;100594.78;1730720;81;21782;-71
2021/10/17 08:00:23;;;;;;;19.35;12.00;;;;;;;10.28;72.49;100599.41;1742950;81;20949;-70
2021/10/17 08:02:52;;;;;;;15.18;11.05;;;;;;;10.39;72.01;100597.29;1755528;81;21031;-70
2021/10/17 08:05:20;;;;;;;16.77;12.05;;;;;;;10.49;71.45;100598.77;1759535;81;20983;-70
2021/10/17 08:07:49;;;;;;;18.40;12.20;;;;;;;10.53;70.87;100600.23;1759592;81;20925;-70
2021/10/17 08:10:17;;;;;;;14.23;10.85;;;;;;;10.59;70.51;100593.98;1759291;81;22548;-70
2021/10/17 08:12:45;;;;;;;17.90;11.22;;;;;;;10.60;69.96;100591.70;1759478;81;20963;-70
2021/10/17 08:15:12;;;;;;;15.05;10.35;;;;;;;10.64;69.83;100589.69;1759625;81;20992;-71
2021/10/17 08:17:38;;;;;;;16.45;9.93;;;;;;;10.73;69.77;100588.98;1742721;81;21023;-70
2021/10/17 08:20:07;;;;;;;15.83;10.20;;;;;;;10.83;69.47;100583.36;1727624;83;20952;-70
2021/10/17 08:22:35;;;;;;;15.32;9.63;;;;;;;10.92;68.87;100587.09;1752314;81;22181;-70
2021/10/17 08:25:04;;;;;;;15.75;9.45;;;;;;;10.98;68.66;100586.59;1759337;81;20999;-71
2021/10/17 08:27:32;;;;;;;14.10;10.23;;;;;;;11.04;68.28;100583.48;1759574;80;20991;-71
2021/10/17 08:30:01;;;;;;;14.20;9.40;;;;;;;11.07;67.81;100585.87;1732324;81;21023;-70
2021/10/17 08:32:28;;;;;;;15.38;9.18;;;;;;;11.11;67.53;100581.22;1745211;81;20956;-71
2021/10/17 08:34:54;;;;;;;14.68;8.88;;;;;;;11.14;67.07;100577.00;1744100;81;22484;-70
2021/10/17 08:37:21;;;;;;;18.05;9.60;;;;;;;11.20;67.22;100582.30;1735010;82;21028;-71
2021/10/17 08:39:55;;;;;;;14.35;9.28;;;;;;;11.36;67.31;100580.11;1731367;82;21374;-71
2021/10/17 08:42:23;;;;;;;13.72;8.20;;;;;;;11.49;66.89;100590.57;1734927;82;20939;-71
2021/10/17 08:44:55;;;;;;;13.80;8.93;;;;;;;11.55;66.15;100586.09;1734909;82;21012;-71
2021/10/17 08:47:19;;;;;;;13.45;8.98;;;;;;;11.58;65.64;100595.09;1703591;82;22176;-72
2021/10/17 08:49:46;;;;;;;14.60;8.65;;;;;;;11.59;65.33;100588.39;1734722;82;20944;-71
2021/10/17 08:52:13;;;;;;;14.75;9.35;;;;;;;11.63;65.13;100599.07;1736145;81;20968;-71
2021/10/17 08:54:44;;;;;;;11.60;7.85;;;;;;;11.66;64.86;100595.33;1734301;82;21612;-70
2021/10/17 08:57:11;;;;;;;14.65;9.15;;;;;;;11.73;65.21;100596.53;1681628;82;21051;-71
2021/10/17 08:59:37;;;;;;;12.50;8.88;;;;;;;11.86;65.04;100595.91;1708221;81;21789;-71
2021/10/17 09:02:20;;;;;;;12.25;8.30;;;;;;;11.96;64.53;100592.87;1765144;81;20928;-70
2021/10/17 09:05:09;;;;;;;13.08;8.63;;;;;;;12.03;64.16;100592.73;1765325;81;20996;-70
2021/10/17 09:07:53;;;;;;;16.00;9.73;;;;;;;12.16;63.92;100593.91;1758879;81;21455;-69
2021/10/17 09:10:24;;;;;;;14.13;8.15;;;;;;;12.25;63.68;100591.80;1705554;82;20955;-70
2021/10/17 09:12:52;;;;;;;12.00;8.25;;;;;;;12.32;63.38;100592.98;1735009;82;21844;-71
2021/10/17 09:15:22;;;;;;;12.28;8.85;;;;;;;12.33;62.91;100589.84;1734840;82;21034;-71
2021/10/17 09:18:18;;;;;;;14.13;8.53;;;;;;;12.29;63.02;100593.73;1735141;82;21465;-70
2021/10/17 09:20:51;;;;;;;12.10;8.05;;;;;;;12.29;63.10;100589.27;1735176;82;20964;-70
2021/10/17 09:23:31;;;;;;;13.90;7.85;;;;;;;12.36;62.64;100590.09;1746909;81;20959;-70
2021/10/17 09:25:59;;;;;;;11.08;7.70;;;;;;;12.41;62.86;100583.91;1764442;81;21819;-71
2021/10/17 09:28:30;;;;;;;10.80;7.53;;;;;;;12.54;62.99;100585.39;1765177;81;21173;-70
2021/10/17 09:31:00;;;;;;;9.58;5.97;;;;;;;12.58;62.61;100580.20;1765488;81;21441;-70
2021/10/17 09:33:26;;;;;;;8.75;5.72;;;;;;;12.57;62.26;100583.83;1783336;80;21387;-70
2021/10/17 09:35:53;;;;;;;10.43;5.60;;;;;;;12.59;61.83;100579.23;1789988;80;21535;-70
2021/10/17 09:38:40;;;;;;;7.10;5.15;;;;;;;12.55;60.87;100575.66;1778013;80;22683;-70
2021/10/17 09:41:21;;;;;;;9.45;5.15;;;;;;;12.46;60.43;100581.25;1758789;81;20944;-70
2021/10/17 09:43:57;;;;;;;7.83;4.80;;;;;;;12.34;59.82;100574.30;1758966;81;20944;-71
2021/10/17 09:46:37;;;;;;;9.45;5.40;;;;;;;12.30;59.71;100577.70;1758477;81;21492;-70
2021/10/17 09:49:16;;;;;;;7.22;4.80;;;;;;;12.32;59.63;100575.77;1758918;81;21364;-70
2021/10/17 09:51:43;;;;;;;6.92;4.62;;;;;;;12.37;59.35;100574.55;1757314;81;22682;-70
2021/10/17 09:54:09;;;;;;;7.60;5.00;;;;;;;12.39;58.97;100568.64;1730961;81;20959;-70
2021/10/17 09:56:42;;;;;;;7.67;4.60;;;;;;;12.41;58.62;100564.05;1701564;81;20929;-72
2021/10/17 09:59:11;;;;;;;8.03;4.75;;;;;;;12.45;57.79;100562.81;1769862;80;20937;-71
2021/10/17 10:01:41;;;;;;;9.45;5.55;;;;;;;12.58;58.26;100560.34;1790091;80;21031;-71
2021/10/17 10:04:11;;;;;;;7.90;4.42;;;;;;;12.74;57.58;100554.58;1790387;80;21812;-71
2021/10/17 10:06:37;;;;;;;8.58;4.83;;;;;;;12.81;57.14;100562.83;1790061;80;20969;-71
2021/10/17 10:09:10;;;;;;;8.65;4.42;;;;;;;12.89;57.19;100560.36;1790008;78;21367;-71
2021/10/17 10:11:38;;;;;;;7.53;3.85;;;;;;;12.97;56.93;100557.89;1790045;80;20953;-71
2021/10/17 10:14:07;;;;;;;8.58;3.47;;;;;;;13.06;56.34;100557.09;1790160;80;20945;-71
2021/10/17 10:16:35;;;;;;;5.53;3.05;;;;;;;13.17;56.11;100552.18;1773772;80;21852;-70
2021/10/17 10:19:08;;;;;;;5.00;2.67;;;;;;;13.29;53.62;100554.27;1758783;81;20949;-69
2021/10/17 10:21:38;;;;;;;6.12;3.00;;;;;;;13.28;52.01;100549.94;1758792;81;20952;-70
2021/10/17 10:24:09;;;;;;;7.83;2.83;;;;;;;13.21;51.18;100544.81;1781743;80;21005;-71
2021/10/17 10:26:37;;;;;;;5.67;2.90;;;;;;;13.18;52.03;100549.39;1790096;80;20957;-71
2021/10/17 10:29:04;;;;;;;5.95;3.35;;;;;;;13.25;51.69;100540.45;1790279;80;21754;-71
2021/10/17 10:31:50;;;;;;;4.92;2.83;;;;;;;13.29;52.02;100541.84;1789970;80;21040;-70
2021/10/17 10:34:34;;;;;;;8.50;3.58;;;;;;;13.30;51.91;100537.38;1764915;80;21067;-70
2021/10/17 10:37:16;;;;;;;6.37;3.40;;;;;;;13.24;51.90;100536.61;1758913;81;21078;-71
2021/10/17 10:40:08;;;;;;;5.03;3.12;;;;;;;13.27;51.74;100525.72;1730955;81;21482;-71
2021/10/17 10:42:48;;;;;;;7.17;3.17;;;;;;;13.51;51.63;100518.70;1758905;80;21858;-71
2021/10/17 10:45:37;;;;;;;5.62;3.00;;;;;;;13.78;50.00;100510.92;1784710;80;20984;-71
2021/10/17 10:48:13;;;;;;;5.47;2.77;;;;;;;14.03;48.99;100505.55;1790060;80;20941;-70
2021/10/17 10:50:50;;;;;;;7.03;3.08;;;;;;;14.11;48.96;100518.14;1771802;79;21008;-71
2021/10/17 10:53:51;;;;;;;6.87;3.45;;;;;;;14.11;49.66;100516.31;1758954;81;20988;-70
2021/10/17 10:56:44;;;;;;;6.30;3.30;;;;;;;14.01;49.16;100515.48;1758763;81;21777;-70
2021/10/17 10:59:13;;;;;;;6.87;3.80;;;;;;;13.86;49.37;100512.39;1758968;81;21004;-70
2021/10/17 11:02:18;;;;;;;7.78;4.03;;;;;;;13.66;49.14;100513.36;1763819;80;21016;-70
2021/10/17 11:04:46;;;;;;;5.00;3.47;;;;;;;13.41;49.55;100511.59;1789190;80;21500;-70
2021/10/17 11:07:24;;;;;;;8.80;3.95;;;;;;;13.22;50.38;100509.36;1778701;80;21052;-71
2021/10/17 11:09:53;;;;;;;8.20;4.05;;;;;;;13.15;50.82;100507.72;1758806;81;21839;-70
2021/10/17 11:12:43;;;;;;;9.50;3.50;;;;;;;13.13;51.15;100512.33;1758711;81;21550;-71
2021/10/17 11:15:13;;;;;;;8.35;3.30;;;;;;;13.10;50.66;100500.16;1749447;81;21094;-70
2021/10/17 11:18:08;;;;;;;5.65;2.90;;;;;;;13.00;49.84;100499.28;1757948;81;21072;-70
2021/10/17 11:20:40;;;;;;;6.40;3.30;;;;;;;12.89;50.27;100498.90;1758842;81;21499;-70
2021/10/17 11:23:22;;;;;;;5.62;2.85;;;;;;;12.79;50.32;100494.53;1730903;81;21824;-70
2021/10/17 11:25:56;;;;;;;5.28;3.10;;;;;;;12.80;50.64;100490.91;1759254;81;20989;-70
2021/10/17 11:28:23;;;;;;;5.75;3.30;;;;;;;12.93;50.95;100495.48;1758731;81;21147;-70